createdAt,value
2023-02-14T00:01:10.649Z,19.20
2023-02-14T00:03:37.834Z,18.85
2023-02-14T00:06:13.419Z,19.00
2023-02-14T00:08:44.424Z,19.52
2023-02-14T00:11:12.869Z,19.70
2023-02-14T00:13:39.786Z,21.35
2023-02-14T00:16:07.233Z,18.38
2023-02-14T00:18:52.565Z,19.17
2023-02-14T00:21:19.696Z,18.73
2023-02-14T00:23:46.590Z,19.83
2023-02-14T00:26:15.268Z,18.63
2023-02-14T00:28:43.508Z,19.42
2023-02-14T00:31:10.929Z,19.40
2023-02-14T00:33:38.257Z,18.70
2023-02-14T00:36:07.739Z,19.55
2023-02-14T00:41:03.524Z,19.80
2023-02-14T00:43:31.604Z,21.77
2023-02-14T00:45:58.573Z,19.85
2023-02-14T00:48:25.601Z,20.13
2023-02-14T00:50:52.617Z,19.75
2023-02-14T00:53:19.581Z,19.27
2023-02-14T00:55:47.087Z,21.58
2023-02-14T00:58:15.112Z,20.45
2023-02-14T01:00:42.156Z,17.67
2023-02-14T01:03:09.170Z,18.52
2023-02-14T01:05:36.039Z,20.80
2023-02-14T01:08:05.023Z,19.83
2023-02-14T01:10:32.387Z,19.65
2023-02-14T01:12:59.588Z,19.55
2023-02-14T01:15:28.460Z,19.17
2023-02-14T01:17:55.375Z,19.83
2023-02-14T01:20:22.490Z,19.67
2023-02-14T01:22:49.618Z,20.95
2023-02-14T01:25:16.547Z,21.40
2023-02-14T01:27:43.815Z,20.17
2023-02-14T01:30:11.655Z,20.05
2023-02-14T01:32:38.533Z,20.88
2023-02-14T01:35:05.685Z,19.65
2023-02-14T01:37:32.654Z,20.95
2023-02-14T01:39:59.818Z,19.23
2023-02-14T01:42:26.855Z,21.98
2023-02-14T01:44:56.884Z,20.55
2023-02-14T01:47:24.621Z,21.92
2023-02-14T01:49:59.470Z,22.90
2023-02-14T01:52:38.214Z,19.83
2023-02-14T01:55:10.065Z,20.92
2023-02-14T01:57:45.334Z,21.05
2023-02-14T02:00:33.355Z,21.40
2023-02-14T02:03:01.782Z,20.45
2023-02-14T02:05:28.794Z,20.80
2023-02-14T02:08:00.426Z,20.58
2023-02-14T02:10:28.377Z,21.17
2023-02-14T02:12:55.615Z,21.55
2023-02-14T02:15:27.000Z,20.65
2023-02-14T02:18:26.470Z,21.92
2023-02-14T02:21:42.807Z,22.30
2023-02-14T02:24:28.456Z,21.95
2023-02-14T02:27:35.711Z,22.35
2023-02-14T02:30:27.786Z,22.23
2023-02-14T02:33:24.028Z,21.33
2023-02-14T02:35:50.950Z,21.83
2023-02-14T02:38:26.673Z,21.15
2023-02-14T02:41:01.900Z,21.50
2023-02-14T02:43:33.148Z,23.30
2023-02-14T02:46:27.749Z,21.02
2023-02-14T02:49:52.222Z,22.65
2023-02-14T02:52:51.653Z,23.75
2023-02-14T02:58:29.960Z,20.85
2023-02-14T03:00:59.824Z,20.60
2023-02-14T03:03:48.937Z,20.60
2023-02-14T03:06:15.775Z,23.10
2023-02-14T03:08:45.318Z,22.38
2023-02-14T03:11:13.517Z,20.95
2023-02-14T03:14:00.993Z,20.05
2023-02-14T03:17:09.655Z,20.55
2023-02-14T03:20:17.793Z,20.65
2023-02-14T03:23:37.476Z,19.45
2023-02-14T03:26:21.735Z,18.50
2023-02-14T03:29:17.160Z,19.50
2023-02-14T03:32:00.633Z,18.80
2023-02-14T03:34:37.200Z,17.98
2023-02-14T03:37:15.711Z,20.35
2023-02-14T03:39:54.785Z,19.25
2023-02-14T03:42:27.690Z,18.92
2023-02-14T03:44:56.791Z,19.20
2023-02-14T03:47:28.801Z,19.63
2023-02-14T03:50:01.887Z,18.48
2023-02-14T03:52:33.730Z,20.00
2023-02-14T03:55:23.009Z,18.33
2023-02-14T04:00:20.875Z,19.27
2023-02-14T04:02:59.368Z,19.52
2023-02-14T04:05:28.145Z,19.50
2023-02-14T04:07:58.109Z,17.77
2023-02-14T04:10:26.500Z,19.42
2023-02-14T04:12:54.299Z,18.55
2023-02-14T04:15:21.446Z,19.42
2023-02-14T04:18:07.040Z,19.48
2023-02-14T04:20:34.395Z,18.70
2023-02-14T04:23:03.326Z,19.90
2023-02-14T04:25:30.697Z,17.85
2023-02-14T04:27:57.692Z,17.25
2023-02-14T04:30:24.818Z,17.88
2023-02-14T04:32:51.990Z,20.80
2023-02-14T04:35:18.942Z,18.30
2023-02-14T04:37:45.992Z,18.90
2023-02-14T04:40:16.929Z,16.38
2023-02-14T04:42:45.238Z,18.02
2023-02-14T04:45:12.771Z,17.67
2023-02-14T04:47:39.977Z,17.83
2023-02-14T04:50:07.294Z,18.08
2023-02-14T04:52:34.307Z,17.05
2023-02-14T04:55:01.263Z,17.45
2023-02-14T04:57:30.760Z,18.70
2023-02-14T04:59:57.739Z,16.95
2023-02-14T05:02:24.745Z,17.40
2023-02-14T05:04:51.699Z,17.70
2023-02-14T05:07:18.678Z,15.70
2023-02-14T05:09:45.514Z,14.55
2023-02-14T05:12:12.492Z,16.35
2023-02-14T05:14:39.343Z,15.55
2023-02-14T05:17:06.422Z,17.17
2023-02-14T05:19:33.771Z,16.48
2023-02-14T05:22:00.652Z,16.92
2023-02-14T05:24:27.506Z,15.95
2023-02-14T05:26:54.547Z,16.67
2023-02-14T05:29:21.562Z,16.13
2023-02-14T05:31:49.701Z,16.58
2023-02-14T05:34:16.740Z,15.98
2023-02-14T05:36:43.676Z,16.02
2023-02-14T05:39:14.514Z,16.33
2023-02-14T05:41:41.840Z,16.83
2023-02-14T05:44:08.700Z,16.00
2023-02-14T05:46:35.616Z,17.27
2023-02-14T05:49:03.574Z,17.00
2023-02-14T05:51:30.700Z,17.20
2023-02-14T05:54:00.049Z,15.90
2023-02-14T05:58:53.915Z,17.02
2023-02-14T06:01:20.916Z,16.40
2023-02-14T06:03:47.780Z,16.77
2023-02-14T06:06:14.837Z,17.45
2023-02-14T06:08:41.896Z,17.77
2023-02-14T06:11:08.928Z,17.75
2023-02-14T06:13:35.915Z,17.38
2023-02-14T06:16:05.031Z,18.30
2023-02-14T06:18:31.943Z,18.42
2023-02-14T06:20:59.284Z,18.33
2023-02-14T06:23:26.654Z,17.20
2023-02-14T06:25:53.616Z,18.95
2023-02-14T06:28:20.576Z,18.15
2023-02-14T06:30:47.575Z,18.50
2023-02-14T06:33:14.921Z,18.25
2023-02-14T06:35:41.964Z,20.25
2023-02-14T06:38:08.943Z,19.08
2023-02-14T06:40:36.102Z,20.25
2023-02-14T06:43:03.283Z,20.55
2023-02-14T06:45:30.195Z,21.73
2023-02-14T06:47:57.300Z,20.73
2023-02-14T06:50:24.214Z,20.70
2023-02-14T06:52:51.632Z,17.30
2023-02-14T06:55:19.240Z,18.70
2023-02-14T06:57:46.271Z,19.40
2023-02-14T07:00:14.909Z,18.90
2023-02-14T07:02:42.172Z,19.92
2023-02-14T07:05:09.159Z,17.92
2023-02-14T07:07:36.175Z,18.48
2023-02-14T07:10:03.386Z,18.33
2023-02-14T07:12:30.478Z,18.38
2023-02-14T07:14:57.402Z,18.85
2023-02-14T07:17:24.820Z,18.77
2023-02-14T07:19:51.647Z,17.35
2023-02-14T07:22:18.529Z,19.13
2023-02-14T07:24:46.657Z,15.38
2023-02-14T07:27:13.639Z,16.70
2023-02-14T07:29:40.494Z,19.60
2023-02-14T07:32:07.554Z,18.30
2023-02-14T07:34:34.929Z,17.10
2023-02-14T07:37:01.859Z,18.83
2023-02-14T07:39:28.935Z,22.48
2023-02-14T07:41:55.849Z,19.70
2023-02-14T07:44:26.264Z,20.58
2023-02-14T07:49:37.786Z,17.95
2023-02-14T07:52:05.251Z,19.27
2023-02-14T07:54:32.269Z,18.52
2023-02-14T07:56:59.221Z,19.52
2023-02-14T07:59:26.264Z,18.65
2023-02-14T08:01:53.474Z,19.52
2023-02-14T08:04:21.428Z,19.77
2023-02-14T08:06:48.522Z,18.83
2023-02-14T08:09:24.685Z,20.33
2023-02-14T08:12:12.062Z,21.52
2023-02-14T08:14:39.164Z,19.75
2023-02-14T08:17:07.575Z,18.05
2023-02-14T08:19:34.572Z,15.63
2023-02-14T08:22:01.415Z,20.15
2023-02-14T08:24:28.878Z,20.25
2023-02-14T08:26:55.883Z,20.45
2023-02-14T08:29:23.293Z,19.27
2023-02-14T08:31:50.512Z,19.00
2023-02-14T08:34:17.637Z,18.92
2023-02-14T08:36:44.577Z,20.83
2023-02-14T08:39:11.989Z,19.80
2023-02-14T08:41:39.444Z,19.65
2023-02-14T08:44:06.519Z,15.25
2023-02-14T08:46:33.455Z,15.13
2023-02-14T08:49:00.534Z,18.67
2023-02-14T08:51:27.526Z,17.90
2023-02-14T08:53:55.915Z,18.45
2023-02-14T08:56:22.937Z,16.92
2023-02-14T08:58:53.147Z,17.67
2023-02-14T09:01:20.601Z,17.35
2023-02-14T09:03:47.798Z,16.55
2023-02-14T09:06:17.552Z,17.25
2023-02-14T09:08:45.534Z,14.90
2023-02-14T09:11:18.977Z,14.95
2023-02-14T09:13:47.128Z,16.02
2023-02-14T09:16:17.375Z,15.25
2023-02-14T09:18:46.497Z,18.20
2023-02-14T09:21:16.879Z,17.77
2023-02-14T09:23:43.848Z,17.27
2023-02-14T09:26:13.517Z,18.13
2023-02-14T09:28:41.139Z,15.60
2023-02-14T09:31:11.299Z,18.98
2023-02-14T09:33:57.462Z,16.35
2023-02-14T09:36:43.288Z,17.73
2023-02-14T09:39:10.235Z,19.42
2023-02-14T09:42:01.647Z,16.48
2023-02-14T09:44:37.336Z,18.85
2023-02-14T09:47:21.349Z,15.45
2023-02-14T09:49:50.748Z,17.80
2023-02-14T09:54:53.510Z,23.95
2023-02-14T09:57:23.548Z,18.98
2023-02-14T10:00:11.365Z,23.25
2023-02-14T10:02:57.442Z,21.45
2023-02-14T10:05:28.843Z,19.35
2023-02-14T10:07:57.616Z,21.70
2023-02-14T10:10:33.530Z,22.42
2023-02-14T10:13:35.988Z,18.02
2023-02-14T10:16:09.615Z,17.05
2023-02-14T10:19:11.381Z,18.88
2023-02-14T10:21:45.992Z,14.50
2023-02-14T10:24:21.192Z,15.35
2023-02-14T10:26:50.388Z,16.65
2023-02-14T10:29:19.194Z,15.73
2023-02-14T10:32:02.893Z,16.75
2023-02-14T10:34:29.929Z,15.88
2023-02-14T10:37:34.619Z,16.05
2023-02-14T10:40:19.991Z,17.45
2023-02-14T10:43:19.034Z,13.85
2023-02-14T10:45:58.247Z,14.73
2023-02-14T10:49:13.622Z,14.00
2023-02-14T10:52:08.267Z,13.93
2023-02-14T10:54:45.860Z,13.35
2023-02-14T10:57:28.396Z,15.43
2023-02-14T11:00:17.445Z,13.57
2023-02-14T11:02:47.831Z,16.63
2023-02-14T11:05:24.332Z,15.43
2023-02-14T11:07:52.726Z,15.63
2023-02-14T11:10:26.483Z,14.75
2023-02-14T11:12:55.746Z,12.75
2023-02-14T11:15:32.495Z,15.88
2023-02-14T11:18:20.752Z,14.77
2023-02-14T11:21:01.711Z,14.70
2023-02-14T11:23:36.958Z,13.65
2023-02-14T11:26:08.934Z,11.52
2023-02-14T11:28:37.022Z,13.43
2023-02-14T11:31:04.585Z,15.63
2023-02-14T11:33:39.456Z,12.90
2023-02-14T11:36:12.965Z,14.60
2023-02-14T11:38:41.306Z,11.60
2023-02-14T11:41:12.110Z,12.98
2023-02-14T11:43:39.052Z,12.65
2023-02-14T11:46:14.310Z,14.07
2023-02-14T11:49:06.953Z,9.57
2023-02-14T11:51:37.154Z,12.77
2023-02-14T11:54:06.084Z,12.48
2023-02-14T11:56:53.908Z,13.10
2023-02-14T11:59:43.177Z,12.50
2023-02-14T12:05:00.726Z,8.88
2023-02-14T12:07:36.908Z,12.00
2023-02-14T12:10:26.051Z,11.90
2023-02-14T12:12:58.219Z,10.77
2023-02-14T12:15:27.306Z,11.70
2023-02-14T12:18:31.850Z,11.95
2023-02-14T12:21:23.712Z,10.48
2023-02-14T12:24:20.676Z,11.75
2023-02-14T12:26:57.074Z,12.68
2023-02-14T12:29:40.018Z,13.18
2023-02-14T12:32:34.001Z,11.02
2023-02-14T12:35:03.737Z,9.90
2023-02-14T12:37:56.026Z,11.32
2023-02-14T12:40:36.686Z,11.18
2023-02-14T12:43:34.412Z,10.50
2023-02-14T12:46:33.143Z,10.95
2023-02-14T12:49:27.033Z,11.80
2023-02-14T12:52:09.342Z,11.70
2023-02-14T12:54:51.648Z,9.20
2023-02-14T12:57:30.649Z,11.45
2023-02-14T13:00:09.842Z,8.75
2023-02-14T13:02:57.227Z,12.27
2023-02-14T13:05:27.014Z,9.85
2023-02-14T13:08:13.506Z,11.70
2023-02-14T13:10:40.368Z,12.52
2023-02-14T13:13:24.706Z,10.90
2023-02-14T13:16:15.701Z,11.30
2023-02-14T13:19:13.170Z,10.05
2023-02-14T13:21:41.939Z,12.57
2023-02-14T13:24:23.157Z,12.40
2023-02-14T13:26:55.528Z,12.65
2023-02-14T13:29:32.656Z,12.73
2023-02-14T13:32:02.603Z,13.30
2023-02-14T13:34:37.054Z,13.43
2023-02-14T13:37:07.898Z,12.15
2023-02-14T13:39:44.128Z,11.60
2023-02-14T13:42:12.040Z,12.88
2023-02-14T13:44:38.822Z,11.93
2023-02-14T13:47:08.632Z,12.02
2023-02-14T13:49:40.564Z,10.60
2023-02-14T13:52:09.922Z,14.20
2023-02-14T13:54:47.221Z,13.55
2023-02-14T13:57:31.686Z,16.95
2023-02-14T14:00:17.197Z,13.13
2023-02-14T14:02:56.822Z,14.20
2023-02-14T14:05:29.921Z,14.18
2023-02-14T14:08:23.518Z,13.68
2023-02-14T14:10:55.300Z,13.23
2023-02-14T14:13:40.632Z,12.43
2023-02-14T14:16:29.321Z,13.05
2023-02-14T14:19:22.005Z,14.38
2023-02-14T14:22:04.805Z,12.93
2023-02-14T14:24:40.107Z,12.82
2023-02-14T14:27:25.926Z,13.40
2023-02-14T14:30:01.940Z,14.57
2023-02-14T14:32:38.409Z,13.75
2023-02-14T14:35:13.471Z,13.88
2023-02-14T14:37:51.157Z,13.15
2023-02-14T14:40:31.433Z,13.68
2023-02-14T14:43:32.980Z,12.75
2023-02-14T14:46:02.647Z,14.43
2023-02-14T14:48:40.929Z,13.95
2023-02-14T14:51:17.393Z,13.15
2023-02-14T14:53:52.760Z,13.20
2023-02-14T14:56:24.288Z,13.32
2023-02-14T14:58:51.736Z,13.52
2023-02-14T15:01:51.649Z,13.30
2023-02-14T15:04:20.074Z,14.88
2023-02-14T15:06:47.764Z,12.02
2023-02-14T15:09:31.802Z,13.90
2023-02-14T15:12:20.615Z,13.95
2023-02-14T15:14:54.747Z,13.73
2023-02-14T15:17:28.514Z,13.50
2023-02-14T15:20:01.547Z,14.10
2023-02-14T15:22:40.899Z,12.30
2023-02-14T15:25:11.336Z,13.43
2023-02-14T15:27:41.867Z,14.25
2023-02-14T15:30:34.251Z,14.07
2023-02-14T15:33:06.149Z,13.15
2023-02-14T15:35:35.849Z,14.98
2023-02-14T15:38:06.073Z,15.15
2023-02-14T15:40:35.308Z,14.45
2023-02-14T15:43:33.664Z,14.02
2023-02-14T15:46:28.386Z,15.10
2023-02-14T15:48:58.523Z,16.73
2023-02-14T15:51:31.825Z,16.25
2023-02-14T15:54:05.905Z,13.85
2023-02-14T15:56:41.840Z,15.40
2023-02-14T15:59:21.524Z,15.73
2023-02-14T16:01:52.676Z,14.55
2023-02-14T16:04:26.078Z,15.27
2023-02-14T16:07:23.339Z,13.95
2023-02-14T16:09:51.913Z,13.93
2023-02-14T16:12:31.194Z,16.00
2023-02-14T16:15:22.695Z,19.98
2023-02-14T16:17:49.806Z,17.17
2023-02-14T16:20:29.151Z,40.92
2023-02-14T16:23:14.298Z,17.70
2023-02-14T16:25:42.079Z,14.73
2023-02-14T16:28:09.020Z,16.13
2023-02-14T16:30:38.727Z,13.73
2023-02-14T16:36:26.171Z,17.40
2023-02-14T16:38:53.994Z,15.60
2023-02-14T16:41:24.691Z,18.27
2023-02-14T16:43:52.553Z,14.48
2023-02-14T16:46:26.453Z,14.82
2023-02-14T16:48:53.652Z,16.00
2023-02-14T16:51:23.150Z,41.78
2023-02-14T16:53:50.777Z,15.15
2023-02-14T16:56:26.100Z,20.40
2023-02-14T16:58:53.233Z,17.58
2023-02-14T17:01:20.285Z,16.63
2023-02-14T17:03:47.694Z,21.15
2023-02-14T17:06:19.270Z,14.98
2023-02-14T17:08:47.688Z,15.95
2023-02-14T17:11:15.346Z,14.82
2023-02-14T17:13:45.053Z,15.35
2023-02-14T17:16:15.650Z,15.88
2023-02-14T17:18:47.689Z,14.55
2023-02-14T17:21:16.434Z,16.13
2023-02-14T17:23:43.370Z,14.07
2023-02-14T17:26:11.322Z,15.50
2023-02-14T17:28:38.475Z,18.75
2023-02-14T17:31:06.187Z,14.75
2023-02-14T17:33:34.081Z,15.35
2023-02-14T17:36:11.922Z,13.85
2023-02-14T17:38:40.218Z,13.82
2023-02-14T17:41:24.303Z,16.52
2023-02-14T17:44:00.195Z,17.63
2023-02-14T17:46:28.945Z,15.40
2023-02-14T17:48:56.762Z,18.40
2023-02-14T17:51:24.453Z,16.80
2023-02-14T17:53:51.659Z,17.77
2023-02-14T17:56:22.677Z,23.55
2023-02-14T17:58:51.748Z,20.33
2023-02-14T18:01:25.405Z,20.38
2023-02-14T18:03:54.816Z,13.85
2023-02-14T18:06:22.028Z,18.77
2023-02-14T18:08:50.551Z,14.52
2023-02-14T18:11:19.912Z,15.15
2023-02-14T18:13:47.225Z,17.88
2023-02-14T18:16:17.551Z,21.23
2023-02-14T18:18:45.452Z,18.20
2023-02-14T18:21:14.769Z,16.42
2023-02-14T18:26:14.012Z,16.85
2023-02-14T18:28:41.182Z,19.90
2023-02-14T18:31:11.299Z,16.67
2023-02-14T18:33:38.991Z,17.35
2023-02-14T18:36:14.578Z,15.48
2023-02-14T18:38:43.626Z,14.93
2023-02-14T18:41:15.779Z,14.10
2023-02-14T18:43:43.976Z,15.13
2023-02-14T18:46:14.170Z,16.98
2023-02-14T18:48:41.656Z,17.85
2023-02-14T18:51:18.170Z,15.30
2023-02-14T18:53:47.072Z,15.05
2023-02-14T18:56:16.349Z,16.52
2023-02-14T19:01:18.055Z,14.05
2023-02-14T19:03:46.852Z,15.23
2023-02-14T19:06:13.911Z,15.80
2023-02-14T19:08:41.774Z,16.63
2023-02-14T19:11:13.999Z,16.25
2023-02-14T19:13:46.066Z,15.90
2023-02-14T19:16:16.748Z,16.13
2023-02-14T19:18:43.910Z,16.42
2023-02-14T19:21:16.204Z,15.48
2023-02-14T19:23:43.806Z,18.98
2023-02-14T19:26:22.157Z,18.38
2023-02-14T19:28:54.733Z,17.60
2023-02-14T19:31:22.212Z,16.60
2023-02-14T19:33:49.365Z,16.63
2023-02-14T19:36:19.079Z,18.60
2023-02-14T19:38:49.392Z,21.67
2023-02-14T19:41:16.767Z,19.42
2023-02-14T19:43:47.822Z,19.73
2023-02-14T19:46:17.039Z,19.48
2023-02-14T19:48:44.725Z,19.20
2023-02-14T19:51:17.649Z,16.67
2023-02-14T19:53:44.634Z,19.70
2023-02-14T19:56:12.696Z,18.70
2023-02-14T19:58:41.001Z,18.90
2023-02-14T20:01:22.306Z,19.40
2023-02-14T20:03:49.413Z,17.13
2023-02-14T20:06:16.274Z,19.55
2023-02-14T20:08:43.528Z,21.33
2023-02-14T20:11:35.997Z,19.33
2023-02-14T20:14:04.915Z,19.92
2023-02-14T20:16:34.188Z,21.92
2023-02-14T20:19:02.641Z,21.55
2023-02-14T20:21:29.659Z,20.37
2023-02-14T20:24:01.580Z,20.00
2023-02-14T20:26:31.413Z,20.05
2023-02-14T20:28:59.280Z,20.98
2023-02-14T20:31:26.327Z,21.10
2023-02-14T20:33:53.286Z,21.00
2023-02-14T20:36:20.562Z,21.95
2023-02-14T20:38:53.604Z,21.67
2023-02-14T20:41:21.076Z,21.98
2023-02-14T20:43:48.011Z,20.73
2023-02-14T20:46:15.017Z,21.63
2023-02-14T20:48:42.182Z,22.50
2023-02-14T20:51:17.730Z,20.83
2023-02-14T20:53:45.726Z,22.45
2023-02-14T20:56:14.176Z,22.10
2023-02-14T20:58:41.983Z,21.58
2023-02-14T21:01:10.448Z,23.27
2023-02-14T21:03:37.673Z,24.40
2023-02-14T21:06:06.755Z,22.92
2023-02-14T21:08:34.398Z,23.58
2023-02-14T21:11:01.991Z,24.38
2023-02-14T21:13:30.220Z,23.98
2023-02-14T21:16:05.835Z,23.27
2023-02-14T21:18:34.421Z,23.05
2023-02-14T21:21:06.706Z,22.27
2023-02-14T21:23:33.951Z,22.23
2023-02-14T21:26:00.972Z,24.20
2023-02-14T21:28:27.959Z,24.60
2023-02-14T21:31:05.831Z,23.27
2023-02-14T21:33:34.760Z,25.48
2023-02-14T21:36:16.128Z,24.58
2023-02-14T21:38:44.173Z,26.13
2023-02-14T21:41:14.407Z,25.90
2023-02-14T21:43:44.526Z,26.15
2023-02-14T21:46:16.016Z,24.60
2023-02-14T21:49:02.909Z,23.30
2023-02-14T21:51:31.738Z,25.13
2023-02-14T21:54:01.870Z,26.88
2023-02-14T21:56:28.943Z,25.73
2023-02-14T21:58:56.079Z,25.35
2023-02-14T22:01:25.738Z,25.63
2023-02-14T22:03:54.015Z,23.60
2023-02-14T22:06:21.618Z,25.85
2023-02-14T22:08:57.312Z,25.20
2023-02-14T22:11:26.685Z,24.63
2023-02-14T22:13:53.722Z,24.17
2023-02-14T22:16:22.293Z,26.85
2023-02-14T22:18:49.470Z,24.83
2023-02-14T22:21:20.319Z,26.80
2023-02-14T22:23:48.214Z,28.48
2023-02-14T22:26:26.763Z,28.33
2023-02-14T22:28:59.320Z,28.85
2023-02-14T22:31:28.869Z,28.15
2023-02-14T22:36:23.163Z,29.02
2023-02-14T22:38:50.219Z,28.40
2023-02-14T22:41:22.792Z,27.98
2023-02-14T22:43:50.772Z,32.88
2023-02-14T22:46:24.881Z,27.48
2023-02-14T22:48:53.497Z,32.00
2023-02-14T22:51:22.104Z,28.98
2023-02-14T22:53:53.975Z,31.20
2023-02-14T22:56:20.989Z,30.85
2023-02-14T22:58:48.185Z,32.70
2023-02-14T23:01:16.206Z,32.67
2023-02-14T23:03:43.924Z,32.55
2023-02-14T23:06:11.888Z,31.70
2023-02-14T23:08:43.379Z,30.30
2023-02-14T23:11:17.984Z,33.05
2023-02-14T23:14:03.933Z,32.20
2023-02-14T23:16:49.945Z,31.38
2023-02-14T23:19:41.718Z,33.08
2023-02-14T23:22:11.644Z,32.28
2023-02-14T23:24:39.127Z,30.98
2023-02-14T23:27:07.476Z,32.50
2023-02-14T23:29:35.446Z,32.33
2023-02-14T23:32:03.012Z,33.05
2023-02-14T23:34:32.319Z,32.00
2023-02-14T23:36:59.734Z,32.05
2023-02-14T23:39:27.093Z,32.33
2023-02-14T23:41:54.327Z,32.38
2023-02-14T23:44:24.317Z,32.67
2023-02-14T23:46:54.025Z,31.38
2023-02-14T23:49:22.583Z,31.45
2023-02-14T23:51:52.886Z,33.27
2023-02-14T23:54:20.997Z,32.75
2023-02-14T23:56:48.338Z,33.58
2023-02-14T23:59:16.217Z,35.20
